This is the latest recevied weather packets stored in our database for station/object W0VI. If no packets are shown the sender has not sent any weather packets the latest 10 day(s).
| Time | Temp. | Humidity | Pressure | Rain* | Wind** | Luminosity | Snow |
|---|---|---|---|---|---|---|---|
| 1787955006 | 25.56° C | 60% | 1017.4 hPa | 0 mm | - | 139 W/m² | - |
| 1787954702 | 25.56° C | 59% | 1017.6 hPa | 0 mm | - | 142 W/m² | - |
| 1787954397 | 25.56° C | 59% | 1017.6 hPa | 0 mm | - | 148 W/m² | - |
| 1787954092 | 25.56° C | 58% | 1017.6 hPa | 0 mm | - | 144 W/m² | - |
| 1787953791 | 26.11° C | 57% | 1017.9 hPa | 0 mm | - | 148 W/m² | - |
| 1787953487 | 25.56° C | 59% | 1017.8 hPa | 0 mm | - | 159 W/m² | - |
| 1787953185 | 26.11° C | 59% | 1017.7 hPa | 0 mm | - | 206 W/m² | - |
| 1787952883 | 26.11° C | 58% | 1017.9 hPa | 0 mm | - | 194 W/m² | - |
| 1787952578 | 26.67° C | 55% | 1017.9 hPa | 0 mm | - | 177 W/m² | - |
| 1787952276 | 26.67° C | 54% | 1017.7 hPa | 0 mm | - | 226 W/m² | - |
| 1787951974 | 26.67° C | 54% | 1017.9 hPa | 0 mm | - | 246 W/m² | - |
| 1787951674 | 27.22° C | 54% | 1017.9 hPa | 0 mm | - | 252 W/m² | - |
| 1787951370 | 26.67° C | 54% | 1018.1 hPa | 0 mm | - | 302 W/m² | - |
| 1787951065 | 27.22° C | 53% | 1017.9 hPa | 0 mm | - | 287 W/m² | - |
| 1787950760 | 27.22° C | 52% | 1018.1 hPa | 0 mm | - | 357 W/m² | - |
| 1787950456 | 27.22° C | 51% | 1018.1 hPa | 0 mm | - | 275 W/m² | - |
| 1787950154 | 26.67° C | 54% | 1018.2 hPa | 0 mm | - | 392 W/m² | - |
| 1787949849 | 26.11° C | 53% | 1018.1 hPa | 0 mm | - | 348 W/m² | - |
| 1787949548 | 26.67° C | 52% | 1018.2 hPa | 0 mm | - | 205 W/m² | - |
| 1787949243 | 26.67° C | 52% | 1018.2 hPa | 0 mm | - | 258 W/m² | - |
| 1787948938 | 26.67° C | 51% | 1018.3 hPa | 0 mm | - | 264 W/m² | - |
| 1787948634 | 26.67° C | 51% | 1018.1 hPa | 0 mm | - | 247 W/m² | - |
| 1787948330 | 26.67° C | 49% | 1018.5 hPa | 0 mm | - | 213 W/m² | - |
| 1787948024 | 26.67° C | 49% | 1018.4 hPa | 0 mm | - | 220 W/m² | - |
| 1787947722 | 26.67° C | 48% | 1018.4 hPa | 0 mm | - | 239 W/m² | - |
* Rain latest hour (hover to see other rain measurements)
** Current wind speed in m/s (hover to see current wind gust speed)